Terminal Aerodrome Forecast
Issued by NWS

Home | Current Version | Previous Version | Text Only | Print | Product List | Glossary On
Versions: 1 2 3 4 5 6 7 8 9 10 11 12 13 14 15 16 17 18 19 20 21 22 23 24
000
FTUS45 KREV 291720
TAFTRK
TAF
KTRK 291720Z 2918/3018 23006KT P6SM SCT080
     FM292000 23012G22KT P6SM SCT090
     FM300300 23006KT P6SM SCT100 WS020/24035KT
     FM301600 20015G25KT P6SM SCT060 BKN100=

USA.gov is the U.S. government's official web portal to all federal, state and local government web resources and services.